createdAt,value
2022-09-04T00:00:28.571Z,0.30
2022-09-04T00:03:15.241Z,0.28
2022-09-04T00:05:56.160Z,1.63
2022-09-04T00:08:44.416Z,0.65
2022-09-04T00:11:41.111Z,0.52
2022-09-04T00:14:25.060Z,0.60
2022-09-04T00:17:08.250Z,0.63
2022-09-04T00:20:02.738Z,0.70
2022-09-04T00:22:45.625Z,1.25
2022-09-04T00:25:41.326Z,1.65
2022-09-04T00:28:38.784Z,1.55
2022-09-04T00:31:38.346Z,4.03
2022-09-04T00:34:32.596Z,2.65
2022-09-04T00:37:08.425Z,0.90
2022-09-04T00:40:16.342Z,3.38
2022-09-04T00:43:20.611Z,1.02
2022-09-04T00:45:56.915Z,1.00
2022-09-04T00:48:45.314Z,1.92
2022-09-04T00:51:32.457Z,2.50
2022-09-04T00:54:23.741Z,1.55
2022-09-04T00:57:47.243Z,0.40
2022-09-04T01:00:24.629Z,2.53
2022-09-04T01:03:09.920Z,1.33
2022-09-04T01:06:15.253Z,0.88
2022-09-04T01:09:23.686Z,0.30
2022-09-04T01:12:19.367Z,2.08
2022-09-04T01:15:18.438Z,2.65
2022-09-04T01:18:39.783Z,3.70
2022-09-04T01:21:32.521Z,1.77
2022-09-04T01:24:44.215Z,3.10
2022-09-04T01:27:57.076Z,1.98
2022-09-04T01:30:27.364Z,1.90
2022-09-04T01:33:25.108Z,0.90
2022-09-04T01:36:13.617Z,1.10
2022-09-04T01:38:55.375Z,2.35
2022-09-04T01:41:34.002Z,2.35
2022-09-04T01:44:12.374Z,3.75
2022-09-04T01:46:49.092Z,4.40
2022-09-04T01:49:30.920Z,1.25
2022-09-04T01:52:35.041Z,2.75
2022-09-04T01:55:31.212Z,1.77
2022-09-04T01:58:19.408Z,2.25
2022-09-04T02:01:13.757Z,1.83
2022-09-04T02:04:26.330Z,0.88
2022-09-04T02:07:05.030Z,3.63
2022-09-04T02:10:09.009Z,2.00
2022-09-04T02:13:17.228Z,2.28
2022-09-04T02:15:59.664Z,2.55
2022-09-04T02:18:45.026Z,4.20
2022-09-04T02:21:28.474Z,5.20
2022-09-04T02:24:09.101Z,4.68
2022-09-04T02:26:49.856Z,4.93
2022-09-04T02:29:58.126Z,4.88
2022-09-04T02:32:41.613Z,7.97
2022-09-04T02:35:15.710Z,5.57
2022-09-04T02:38:12.272Z,4.38
2022-09-04T02:41:01.482Z,7.43
2022-09-04T02:44:06.561Z,6.32
2022-09-04T02:46:50.047Z,7.30
2022-09-04T02:49:44.449Z,3.63
2022-09-04T02:52:35.706Z,7.57
2022-09-04T02:55:41.630Z,8.20
2022-09-04T02:58:45.835Z,4.05
2022-09-04T03:01:38.598Z,6.90
2022-09-04T03:04:21.468Z,5.15
2022-09-04T03:07:02.153Z,5.18
2022-09-04T03:09:35.643Z,6.13
2022-09-04T03:12:34.955Z,6.25
2022-09-04T03:15:36.922Z,2.80
2022-09-04T03:18:39.039Z,5.22
2022-09-04T03:21:32.131Z,3.85
2022-09-04T03:24:08.352Z,6.38
2022-09-04T03:26:52.359Z,5.90
2022-09-04T03:29:54.922Z,6.53
2022-09-04T03:32:51.051Z,6.05
2022-09-04T03:36:05.575Z,6.15
2022-09-04T03:39:05.815Z,5.18
2022-09-04T03:41:56.861Z,5.15
2022-09-04T03:44:48.106Z,4.95
2022-09-04T03:47:47.735Z,8.68
2022-09-04T03:50:50.624Z,5.13
2022-09-04T03:53:31.173Z,10.38
2022-09-04T03:56:41.671Z,8.88
2022-09-04T03:59:26.935Z,6.60
2022-09-04T04:02:43.770Z,10.00
2022-09-04T04:06:10.353Z,12.57
2022-09-04T04:09:02.401Z,7.20
2022-09-04T04:11:51.136Z,9.05
2022-09-04T04:15:01.018Z,7.68
2022-09-04T04:17:34.355Z,7.28
2022-09-04T04:20:26.833Z,6.70
2022-09-04T04:23:05.901Z,5.15
2022-09-04T04:25:42.477Z,5.85
2022-09-04T04:28:25.820Z,5.32
2022-09-04T04:31:02.460Z,9.60
2022-09-04T04:33:50.773Z,5.00
2022-09-04T04:36:26.905Z,7.22
2022-09-04T04:39:13.830Z,7.07
2022-09-04T04:42:07.480Z,6.03
2022-09-04T04:45:25.337Z,6.00
2022-09-04T04:48:35.355Z,5.32
2022-09-04T04:51:06.946Z,7.35
2022-09-04T04:53:48.975Z,7.97
2022-09-04T04:56:31.548Z,4.40
2022-09-04T04:59:22.202Z,6.05
2022-09-04T05:02:28.708Z,6.93
2022-09-04T05:05:20.380Z,5.55
2022-09-04T05:08:10.394Z,3.40
2022-09-04T05:11:14.174Z,6.18
2022-09-04T05:14:03.640Z,8.70
2022-09-04T05:16:58.247Z,3.08
2022-09-04T05:19:50.939Z,4.95
2022-09-04T05:22:41.225Z,4.28
2022-09-04T05:25:26.401Z,3.03
2022-09-04T05:28:32.748Z,4.80
2022-09-04T05:31:23.955Z,5.60
2022-09-04T05:34:22.872Z,3.05
2022-09-04T05:37:13.879Z,5.22
2022-09-04T05:40:16.422Z,5.45
2022-09-04T05:42:54.754Z,3.70
2022-09-04T05:45:31.116Z,3.92
2022-09-04T05:48:24.671Z,4.68
2022-09-04T05:51:09.633Z,3.85
2022-09-04T05:54:17.377Z,3.80
2022-09-04T05:57:02.754Z,3.47
2022-09-04T05:59:50.956Z,2.42
2022-09-04T06:02:28.026Z,2.00
2022-09-04T06:05:23.581Z,2.78
2022-09-04T06:08:29.262Z,3.05
2022-09-04T06:11:05.766Z,2.80
2022-09-04T06:13:50.545Z,4.78
2022-09-04T06:16:38.635Z,2.50
2022-09-04T06:19:37.862Z,3.53
2022-09-04T06:22:40.262Z,3.50
2022-09-04T06:25:28.540Z,2.72
2022-09-04T06:28:16.659Z,1.20
2022-09-04T06:30:53.305Z,1.92
2022-09-04T06:33:29.644Z,2.33
2022-09-04T06:36:32.487Z,3.95
2022-09-04T06:39:18.046Z,1.55
2022-09-04T06:41:54.020Z,2.78
2022-09-04T06:44:47.573Z,6.88
2022-09-04T06:47:42.235Z,3.22
2022-09-04T06:50:21.642Z,7.32
2022-09-04T06:53:17.031Z,1.40
2022-09-04T06:56:48.463Z,4.90
2022-09-04T06:59:50.357Z,4.85
2022-09-04T07:02:39.880Z,2.92
2022-09-04T07:05:20.862Z,4.05
2022-09-04T07:07:54.257Z,2.92
2022-09-04T07:10:38.133Z,4.18
2022-09-04T07:13:38.706Z,5.25
2022-09-04T07:16:32.492Z,5.93
2022-09-04T07:19:31.766Z,3.72
2022-09-04T07:22:19.647Z,4.13
2022-09-04T07:24:52.847Z,3.97
2022-09-04T07:28:04.505Z,2.30
2022-09-04T07:30:55.548Z,2.70
2022-09-04T07:33:52.941Z,1.42
2022-09-04T07:36:33.763Z,5.70
2022-09-04T07:39:17.234Z,2.15
2022-09-04T07:41:54.903Z,3.97
2022-09-04T07:44:37.466Z,3.78
2022-09-04T07:47:26.377Z,3.95
2022-09-04T07:50:21.229Z,5.78
2022-09-04T07:53:15.621Z,1.58
2022-09-04T07:55:49.740Z,4.68
2022-09-04T07:58:45.892Z,5.20
2022-09-04T08:01:40.410Z,1.88
2022-09-04T08:04:19.360Z,2.03
2022-09-04T08:07:00.443Z,1.55
2022-09-04T08:09:57.769Z,5.38
2022-09-04T08:12:37.014Z,2.45
2022-09-04T08:15:17.458Z,1.48
2022-09-04T08:18:26.028Z,1.67
2022-09-04T08:21:30.606Z,2.72
2022-09-04T08:24:16.827Z,2.88
2022-09-04T08:26:54.668Z,1.35
2022-09-04T08:29:45.481Z,4.05
2022-09-04T08:32:39.547Z,1.65
2022-09-04T08:35:24.567Z,2.38
2022-09-04T08:38:27.967Z,0.68
2022-09-04T08:41:18.160Z,4.97
2022-09-04T08:44:24.773Z,1.42
2022-09-04T08:46:55.347Z,2.22
2022-09-04T08:50:10.130Z,2.22
2022-09-04T08:53:17.477Z,3.13
2022-09-04T08:56:22.069Z,2.53
2022-09-04T08:59:07.515Z,1.77
2022-09-04T09:02:05.168Z,1.75
2022-09-04T09:05:11.851Z,0.90
2022-09-04T09:07:42.023Z,3.60
2022-09-04T09:10:27.060Z,1.90
2022-09-04T09:13:15.065Z,2.08
2022-09-04T09:15:57.304Z,1.40
2022-09-04T09:18:42.892Z,1.55
2022-09-04T09:21:26.845Z,2.25
2022-09-04T09:24:18.483Z,2.15
2022-09-04T09:27:01.279Z,2.53
2022-09-04T09:30:07.853Z,4.50
2022-09-04T09:33:05.813Z,2.13
2022-09-04T09:36:04.403Z,2.17
2022-09-04T09:38:54.768Z,4.13
2022-09-04T09:41:48.772Z,2.60
2022-09-04T09:44:55.593Z,1.40
2022-09-04T09:48:02.094Z,1.92
2022-09-04T09:50:52.315Z,2.58
2022-09-04T09:53:34.082Z,2.80
2022-09-04T09:56:28.427Z,1.83
2022-09-04T09:59:04.985Z,1.42
2022-09-04T10:02:20.842Z,1.48
2022-09-04T10:05:21.039Z,1.40
2022-09-04T10:08:13.889Z,1.00
2022-09-04T10:11:15.263Z,3.63
2022-09-04T10:14:12.712Z,1.17
2022-09-04T10:17:16.432Z,2.22
2022-09-04T10:20:28.661Z,2.55
2022-09-04T10:23:35.151Z,1.20
2022-09-04T10:26:11.589Z,1.15
2022-09-04T10:29:11.757Z,2.00
2022-09-04T10:31:42.076Z,4.85
2022-09-04T10:34:31.146Z,1.35
2022-09-04T10:37:20.235Z,2.72
2022-09-04T10:40:14.570Z,1.20
2022-09-04T10:42:56.759Z,1.42
2022-09-04T10:45:41.764Z,1.52
2022-09-04T10:48:52.001Z,1.48
2022-09-04T10:51:45.664Z,1.38
2022-09-04T10:54:37.497Z,2.08
2022-09-04T10:57:31.847Z,2.00
2022-09-04T11:00:19.909Z,2.22
2022-09-04T11:02:56.193Z,1.73
2022-09-04T11:05:46.153Z,0.93
2022-09-04T11:08:49.675Z,1.27
2022-09-04T11:11:38.338Z,1.05
2022-09-04T11:14:31.305Z,1.45
2022-09-04T11:17:07.646Z,1.45
2022-09-04T11:20:18.204Z,1.17
2022-09-04T11:23:13.825Z,1.25
2022-09-04T11:26:41.097Z,2.72
2022-09-04T11:29:29.338Z,2.35
2022-09-04T11:32:27.766Z,1.45
2022-09-04T11:35:31.834Z,2.95
2022-09-04T11:38:10.832Z,4.25
2022-09-04T11:40:47.350Z,1.00
2022-09-04T11:43:17.510Z,2.10
2022-09-04T11:46:10.923Z,1.58
2022-09-04T11:49:12.384Z,1.73
2022-09-04T11:52:07.931Z,2.10
2022-09-04T11:54:55.911Z,1.35
2022-09-04T11:57:32.292Z,2.53
2022-09-04T12:00:11.088Z,6.47
2022-09-04T12:03:27.985Z,6.10
2022-09-04T12:06:23.878Z,2.53
2022-09-04T12:09:09.953Z,7.10
2022-09-04T12:12:13.246Z,2.60
2022-09-04T12:15:08.777Z,3.60
2022-09-04T12:18:37.756Z,1.60
2022-09-04T12:21:39.470Z,2.15
2022-09-04T12:24:24.613Z,1.25
2022-09-04T12:27:13.392Z,1.05
2022-09-04T12:30:02.369Z,4.40
2022-09-04T12:32:57.131Z,1.25
2022-09-04T12:35:31.731Z,2.30
2022-09-04T12:38:39.494Z,1.60
2022-09-04T12:41:27.680Z,1.40
2022-09-04T12:44:21.077Z,1.33
2022-09-04T12:47:19.350Z,1.88
2022-09-04T12:50:10.968Z,1.70
2022-09-04T12:52:52.993Z,1.98
2022-09-04T12:55:44.393Z,1.30
2022-09-04T12:58:22.838Z,1.67
2022-09-04T13:01:15.555Z,1.30
2022-09-04T13:04:04.219Z,0.93
2022-09-04T13:07:16.365Z,1.65
2022-09-04T13:10:07.508Z,3.00
2022-09-04T13:12:46.544Z,1.48
2022-09-04T13:15:23.368Z,1.58
2022-09-04T13:18:37.033Z,2.67
2022-09-04T13:21:18.959Z,0.98
2022-09-04T13:23:54.568Z,0.90
2022-09-04T13:26:57.347Z,2.78
2022-09-04T13:29:37.833Z,2.63
2022-09-04T13:32:45.179Z,1.63
2022-09-04T13:35:36.604Z,0.95
2022-09-04T13:38:43.686Z,0.85
2022-09-04T13:41:31.858Z,1.13
2022-09-04T13:44:30.567Z,2.13
2022-09-04T13:47:22.869Z,1.45
2022-09-04T13:50:15.750Z,0.77
2022-09-04T13:53:08.567Z,0.73
2022-09-04T13:55:43.446Z,0.70
2022-09-04T13:58:22.974Z,0.70
2022-09-04T14:01:01.944Z,1.08
2022-09-04T14:03:50.431Z,1.08
2022-09-04T14:06:24.446Z,1.70
2022-09-04T14:09:04.335Z,0.70
2022-09-04T14:11:59.920Z,1.08
2022-09-04T14:14:51.347Z,0.60
2022-09-04T14:17:28.584Z,2.35
2022-09-04T14:20:05.510Z,0.82
2022-09-04T14:22:57.886Z,0.90
2022-09-04T14:25:52.875Z,1.92
2022-09-04T14:28:51.801Z,1.30
2022-09-04T14:31:49.010Z,0.98
2022-09-04T14:34:42.311Z,1.25
2022-09-04T14:38:02.037Z,1.02
2022-09-04T14:40:51.110Z,0.80
2022-09-04T14:43:34.227Z,1.20
2022-09-04T14:46:17.520Z,1.35
2022-09-04T14:48:52.822Z,0.70
2022-09-04T14:51:27.707Z,0.88
2022-09-04T14:53:58.734Z,0.70
2022-09-04T14:56:55.386Z,1.27
2022-09-04T14:59:31.052Z,1.05
2022-09-04T15:02:13.371Z,1.40
2022-09-04T15:04:55.622Z,1.05
2022-09-04T15:07:44.838Z,1.08
2022-09-04T15:10:27.681Z,1.27
2022-09-04T15:13:22.024Z,0.70
2022-09-04T15:16:01.062Z,0.98
2022-09-04T15:18:31.595Z,1.48
2022-09-04T15:21:40.171Z,1.60
2022-09-04T15:24:31.401Z,0.98
2022-09-04T15:27:21.679Z,1.00
2022-09-04T15:30:07.137Z,0.73
2022-09-04T15:32:43.450Z,1.27
2022-09-04T15:35:17.158Z,0.68
2022-09-04T15:37:50.744Z,0.82
2022-09-04T15:40:32.623Z,1.08
2022-09-04T15:43:14.930Z,1.50
2022-09-04T15:46:11.071Z,1.25
2022-09-04T15:48:47.525Z,1.15
2022-09-04T15:51:50.046Z,0.85
2022-09-04T15:54:37.429Z,1.05
2022-09-04T15:57:19.355Z,1.08
2022-09-04T16:00:00.802Z,1.02
2022-09-04T16:02:39.574Z,1.30
2022-09-04T16:05:39.263Z,1.08
2022-09-04T16:08:32.877Z,0.93
2022-09-04T16:11:23.486Z,1.42
2022-09-04T16:14:04.961Z,1.08
2022-09-04T16:16:37.860Z,0.90
2022-09-04T16:19:39.673Z,1.50
2022-09-04T16:22:09.902Z,1.25
2022-09-04T16:24:55.826Z,1.67
2022-09-04T16:27:30.640Z,1.13
2022-09-04T16:30:06.478Z,1.40
2022-09-04T16:32:37.908Z,0.88
2022-09-04T16:35:21.084Z,0.98
2022-09-04T16:38:11.002Z,1.17
2022-09-04T16:40:59.590Z,0.98
2022-09-04T16:43:38.231Z,0.60
2022-09-04T16:46:31.642Z,1.23
2022-09-04T16:49:15.795Z,1.15
2022-09-04T16:52:33.616Z,1.40
2022-09-04T16:55:13.145Z,1.05
2022-09-04T16:58:09.012Z,1.15
2022-09-04T17:01:12.862Z,1.63
2022-09-04T17:04:12.439Z,1.38
2022-09-04T17:07:01.741Z,0.85
2022-09-04T17:09:56.397Z,1.05
2022-09-04T17:12:48.901Z,1.83
2022-09-04T17:15:55.972Z,1.00
2022-09-04T17:18:28.462Z,1.27
2022-09-04T17:26:31.220Z,0.90
2022-09-04T17:29:14.374Z,1.02
2022-09-04T17:29:16.662Z,1.05
2022-09-04T17:31:09.698Z,1.25
2022-09-04T17:40:33.131Z,1.02
2022-09-04T17:40:49.398Z,1.15
2022-09-04T17:41:36.747Z,1.35
2022-09-04T17:44:05.039Z,0.77
2022-09-04T17:46:50.791Z,0.82
2022-09-04T17:49:34.178Z,0.70
2022-09-04T17:52:10.488Z,1.27
2022-09-04T17:54:49.076Z,1.80
2022-09-04T17:57:45.420Z,0.63
2022-09-04T18:00:30.357Z,1.25
2022-09-04T18:03:26.841Z,0.73
2022-09-04T18:06:15.780Z,0.90
2022-09-04T18:08:55.812Z,1.10
2022-09-04T18:11:29.100Z,1.10
2022-09-04T18:14:27.471Z,1.05
2022-09-04T18:17:11.843Z,1.13
2022-09-04T18:19:50.858Z,1.23
2022-09-04T18:22:46.940Z,0.80
2022-09-04T18:25:22.375Z,0.93
2022-09-04T18:28:28.744Z,0.80
2022-09-04T18:37:12.132Z,1.00
2022-09-04T18:37:19.847Z,1.10
2022-09-04T18:37:45.166Z,0.65
2022-09-04T18:40:54.857Z,0.88
2022-09-04T18:50:31.292Z,0.88
2022-09-04T18:50:38.071Z,0.80
2022-09-04T18:50:45.240Z,0.73
2022-09-04T18:52:52.039Z,0.80
2022-09-04T18:55:50.971Z,0.80
2022-09-04T18:58:39.372Z,1.70
2022-09-04T19:01:27.202Z,1.23
2022-09-04T19:04:18.734Z,0.60
2022-09-04T19:07:07.758Z,1.10
2022-09-04T19:10:11.465Z,0.88
2022-09-04T19:13:00.282Z,0.82
2022-09-04T19:15:37.667Z,1.10
2022-09-04T19:18:17.706Z,1.33
2022-09-04T19:20:55.098Z,0.77
2022-09-04T19:23:55.847Z,0.90
2022-09-04T19:26:47.270Z,0.95
2022-09-04T19:29:35.610Z,0.70
2022-09-04T19:32:19.857Z,0.80
2022-09-04T19:35:04.619Z,0.60
2022-09-04T19:44:01.179Z,1.27
2022-09-04T19:46:00.184Z,0.50
2022-09-04T19:46:19.914Z,0.70
2022-09-04T19:47:27.186Z,1.53
2022-09-04T19:53:22.374Z,2.03
2022-09-04T19:53:39.055Z,1.35
2022-09-04T19:56:14.820Z,0.70
2022-09-04T19:58:54.402Z,1.08
2022-09-04T20:01:32.945Z,0.93
2022-09-04T20:04:12.344Z,0.93
2022-09-04T20:06:49.740Z,0.70
2022-09-04T20:09:56.682Z,0.90
2022-09-04T20:12:35.997Z,0.60
2022-09-04T20:15:19.810Z,1.93
2022-09-04T20:18:11.685Z,1.00
2022-09-04T20:20:46.327Z,1.20
2022-09-04T20:23:42.775Z,0.70
2022-09-04T20:26:31.832Z,0.90
2022-09-04T20:29:32.082Z,0.77
2022-09-04T20:32:17.080Z,0.50
2022-09-04T20:34:50.547Z,6.50
2022-09-04T20:37:43.674Z,10.80
2022-09-04T20:40:39.549Z,3.72
2022-09-04T20:43:28.525Z,2.28
2022-09-04T20:50:36.018Z,0.60
2022-09-04T20:52:49.297Z,1.43
2022-09-04T20:52:50.005Z,1.70
2022-09-04T20:55:06.633Z,1.33
2022-09-04T21:03:13.286Z,1.60
2022-09-04T21:03:21.098Z,1.75
2022-09-04T21:04:17.331Z,0.93
2022-09-04T21:07:09.382Z,0.93
2022-09-04T21:09:56.362Z,3.08
2022-09-04T21:12:42.497Z,4.53
2022-09-04T21:15:15.954Z,3.08
2022-09-04T21:17:58.509Z,5.50
2022-09-04T21:20:59.852Z,0.60
2022-09-04T21:23:46.360Z,1.27
2022-09-04T21:26:41.348Z,2.08
2022-09-04T21:29:38.956Z,5.03
2022-09-04T21:32:18.647Z,1.92
2022-09-04T21:34:55.670Z,2.60
2022-09-04T21:37:53.589Z,1.38
2022-09-04T21:41:00.316Z,3.42
2022-09-04T21:43:42.246Z,1.02
2022-09-04T21:46:48.960Z,2.05
2022-09-04T21:49:50.273Z,1.17
2022-09-04T21:52:32.197Z,1.58
2022-09-04T21:59:43.866Z,0.70
2022-09-04T22:02:40.620Z,1.25
2022-09-04T22:02:42.626Z,4.50
2022-09-04T22:05:08.667Z,1.75
2022-09-04T22:13:26.391Z,1.23
2022-09-04T22:13:42.733Z,2.80
2022-09-04T22:14:14.932Z,6.68
2022-09-04T22:17:06.771Z,4.63
2022-09-04T22:20:01.060Z,2.53
2022-09-04T22:23:07.463Z,2.08
2022-09-04T22:25:41.532Z,9.20
2022-09-04T22:28:47.598Z,6.22
2022-09-04T22:31:30.866Z,4.63
2022-09-04T22:34:35.515Z,0.57
2022-09-04T22:37:23.963Z,4.38
2022-09-04T22:40:19.925Z,3.72
2022-09-04T22:43:12.807Z,1.13
2022-09-04T22:46:07.627Z,0.50
2022-09-04T22:49:12.265Z,0.75
2022-09-04T22:52:13.447Z,0.60
2022-09-04T22:54:53.473Z,7.07
2022-09-04T22:57:54.862Z,4.07
2022-09-04T23:00:25.804Z,5.18
2022-09-04T23:03:09.582Z,2.40
2022-09-04T23:05:40.558Z,1.13
2022-09-04T23:13:38.693Z,3.35
2022-09-04T23:14:00.282Z,0.50
2022-09-04T23:14:21.989Z,2.78
2022-09-04T23:17:04.151Z,2.63
2022-09-04T23:22:54.638Z,4.50
2022-09-04T23:26:46.440Z,4.18
2022-09-04T23:26:50.901Z,1.52
2022-09-04T23:29:44.623Z,3.92
2022-09-04T23:33:02.218Z,4.03
2022-09-04T23:35:44.365Z,1.17
2022-09-04T23:38:43.291Z,0.75
2022-09-04T23:41:24.341Z,3.22
2022-09-04T23:44:25.383Z,0.60
2022-09-04T23:47:47.873Z,1.63
2022-09-04T23:50:37.024Z,4.80
2022-09-04T23:53:15.606Z,1.20
2022-09-04T23:55:54.745Z,3.15
2022-09-04T23:59:07.521Z,2.67
